sensor_id;sensor_type;location;lat;lon;timestamp;P1;durP1;ratioP1;P2;durP2;ratioP2
6519;SDS011;3293;51.690;5.982;2022-07-06T00:00:12;4.30;;;3.87;;
6519;SDS011;3293;51.690;5.982;2022-07-06T00:05:12;4.03;;;3.63;;
6519;SDS011;3293;51.690;5.982;2022-07-06T00:10:12;5.80;;;3.93;;
6519;SDS011;3293;51.690;5.982;2022-07-06T00:15:12;4.70;;;4.30;;
6519;SDS011;3293;51.690;5.982;2022-07-06T00:20:12;4.10;;;3.73;;
6519;SDS011;3293;51.690;5.982;2022-07-06T00:25:12;6.00;;;4.13;;
6519;SDS011;3293;51.690;5.982;2022-07-06T00:30:11;5.23;;;4.10;;
6519;SDS011;3293;51.690;5.982;2022-07-06T00:35:11;4.53;;;3.73;;
6519;SDS011;3293;51.690;5.982;2022-07-06T00:40:11;4.33;;;3.83;;
6519;SDS011;3293;51.690;5.982;2022-07-06T00:45:13;4.80;;;4.13;;
6519;SDS011;3293;51.690;5.982;2022-07-06T00:50:15;5.80;;;4.10;;
6519;SDS011;3293;51.690;5.982;2022-07-06T00:55:23;6.73;;;4.20;;
6519;SDS011;3293;51.690;5.982;2022-07-06T01:00:26;5.17;;;4.70;;
6519;SDS011;3293;51.690;5.982;2022-07-06T01:05:26;4.33;;;3.93;;
6519;SDS011;3293;51.690;5.982;2022-07-06T01:10:26;5.83;;;4.27;;
6519;SDS011;3293;51.690;5.982;2022-07-06T01:15:26;4.63;;;3.80;;
6519;SDS011;3293;51.690;5.982;2022-07-06T01:20:26;6.83;;;4.47;;
6519;SDS011;3293;51.690;5.982;2022-07-06T01:25:28;6.13;;;4.13;;
6519;SDS011;3293;51.690;5.982;2022-07-06T01:30:28;4.40;;;4.00;;
6519;SDS011;3293;51.690;5.982;2022-07-06T01:35:28;3.87;;;3.53;;
6519;SDS011;3293;51.690;5.982;2022-07-06T01:40:31;5.80;;;4.20;;
6519;SDS011;3293;51.690;5.982;2022-07-06T01:45:31;6.03;;;4.40;;
6519;SDS011;3293;51.690;5.982;2022-07-06T01:50:31;6.37;;;5.13;;
6519;SDS011;3293;51.690;5.982;2022-07-06T01:55:31;6.53;;;5.30;;
6519;SDS011;3293;51.690;5.982;2022-07-06T02:00:31;6.23;;;5.70;;
6519;SDS011;3293;51.690;5.982;2022-07-06T02:05:31;10.40;;;6.03;;
6519;SDS011;3293;51.690;5.982;2022-07-06T02:10:31;11.23;;;6.40;;
6519;SDS011;3293;51.690;5.982;2022-07-06T02:15:31;7.57;;;6.03;;
6519;SDS011;3293;51.690;5.982;2022-07-06T02:20:31;7.37;;;6.57;;
6519;SDS011;3293;51.690;5.982;2022-07-06T02:25:31;11.80;;;7.90;;
6519;SDS011;3293;51.690;5.982;2022-07-06T02:30:32;10.87;;;7.97;;
6519;SDS011;3293;51.690;5.982;2022-07-06T02:35:32;9.93;;;6.97;;
6519;SDS011;3293;51.690;5.982;2022-07-06T02:40:32;7.80;;;6.73;;
6519;SDS011;3293;51.690;5.982;2022-07-06T02:45:32;9.37;;;6.60;;
6519;SDS011;3293;51.690;5.982;2022-07-06T02:50:32;8.30;;;7.43;;
6519;SDS011;3293;51.690;5.982;2022-07-06T02:55:32;9.60;;;7.57;;
6519;SDS011;3293;51.690;5.982;2022-07-06T03:00:32;8.50;;;6.50;;
6519;SDS011;3293;51.690;5.982;2022-07-06T03:05:32;10.27;;;7.17;;
6519;SDS011;3293;51.690;5.982;2022-07-06T03:10:32;9.73;;;7.10;;
6519;SDS011;3293;51.690;5.982;2022-07-06T03:15:32;11.57;;;7.07;;
6519;SDS011;3293;51.690;5.982;2022-07-06T03:20:32;7.80;;;6.27;;
6519;SDS011;3293;51.690;5.982;2022-07-06T03:25:32;8.23;;;7.07;;
6519;SDS011;3293;51.690;5.982;2022-07-06T03:30:32;8.10;;;6.73;;
6519;SDS011;3293;51.690;5.982;2022-07-06T03:35:32;9.23;;;7.07;;
6519;SDS011;3293;51.690;5.982;2022-07-06T03:40:32;7.97;;;7.13;;
6519;SDS011;3293;51.690;5.982;2022-07-06T03:45:32;8.93;;;8.03;;
6519;SDS011;3293;51.690;5.982;2022-07-06T03:50:32;10.30;;;7.87;;
6519;SDS011;3293;51.690;5.982;2022-07-06T03:55:32;12.30;;;7.80;;
6519;SDS011;3293;51.690;5.982;2022-07-06T04:00:32;8.93;;;7.07;;
6519;SDS011;3293;51.690;5.982;2022-07-06T04:05:33;9.67;;;7.20;;
6519;SDS011;3293;51.690;5.982;2022-07-06T04:10:33;8.87;;;6.90;;
6519;SDS011;3293;51.690;5.982;2022-07-06T04:15:33;12.53;;;7.80;;
6519;SDS011;3293;51.690;5.982;2022-07-06T04:20:33;9.13;;;6.73;;
6519;SDS011;3293;51.690;5.982;2022-07-06T04:25:33;7.70;;;6.40;;
6519;SDS011;3293;51.690;5.982;2022-07-06T04:30:33;7.87;;;6.30;;
6519;SDS011;3293;51.690;5.982;2022-07-06T04:35:33;7.93;;;6.73;;
6519;SDS011;3293;51.690;5.982;2022-07-06T04:40:33;9.17;;;6.60;;
6519;SDS011;3293;51.690;5.982;2022-07-06T04:45:33;9.47;;;6.57;;
6519;SDS011;3293;51.690;5.982;2022-07-06T04:50:33;9.60;;;6.10;;
6519;SDS011;3293;51.690;5.982;2022-07-06T04:55:33;7.20;;;5.90;;
6519;SDS011;3293;51.690;5.982;2022-07-06T05:00:33;8.50;;;6.07;;
6519;SDS011;3293;51.690;5.982;2022-07-06T05:05:33;6.90;;;4.80;;
6519;SDS011;3293;51.690;5.982;2022-07-06T05:10:33;7.47;;;4.80;;
6519;SDS011;3293;51.690;5.982;2022-07-06T05:15:33;6.53;;;3.87;;
6519;SDS011;3293;51.690;5.982;2022-07-06T05:20:33;8.13;;;4.18;;
6519;SDS011;3293;51.690;5.982;2022-07-06T05:25:33;7.60;;;3.92;;
6519;SDS011;3293;51.690;5.982;2022-07-06T05:30:33;7.18;;;4.40;;
6519;SDS011;3293;51.690;5.982;2022-07-06T05:35:33;4.53;;;4.13;;
6519;SDS011;3293;51.690;5.982;2022-07-06T05:40:33;6.37;;;4.37;;
6519;SDS011;3293;51.690;5.982;2022-07-06T05:45:33;6.87;;;4.40;;
6519;SDS011;3293;51.690;5.982;2022-07-06T05:50:33;5.70;;;4.07;;
6519;SDS011;3293;51.690;5.982;2022-07-06T05:55:33;6.90;;;4.30;;
6519;SDS011;3293;51.690;5.982;2022-07-06T06:00:33;6.17;;;3.90;;
6519;SDS011;3293;51.690;5.982;2022-07-06T06:05:33;7.50;;;3.90;;
6519;SDS011;3293;51.690;5.982;2022-07-06T06:10:33;5.37;;;3.60;;
6519;SDS011;3293;51.690;5.982;2022-07-06T06:15:33;4.10;;;3.60;;
6519;SDS011;3293;51.690;5.982;2022-07-06T06:20:34;4.47;;;2.97;;
6519;SDS011;3293;51.690;5.982;2022-07-06T06:25:35;5.25;;;3.20;;
6519;SDS011;3293;51.690;5.982;2022-07-06T06:30:38;2.58;;;2.38;;
6519;SDS011;3293;51.690;5.982;2022-07-06T06:35:42;5.07;;;2.70;;
6519;SDS011;3293;51.690;5.982;2022-07-06T06:40:43;4.20;;;2.58;;
6519;SDS011;3293;51.690;5.982;2022-07-06T06:45:43;8.00;;;2.25;;
6519;SDS011;3293;51.690;5.982;2022-07-06T06:50:44;4.00;;;2.40;;
6519;SDS011;3293;51.690;5.982;2022-07-06T06:55:45;4.80;;;2.00;;
6519;SDS011;3293;51.690;5.982;2022-07-06T07:00:44;3.30;;;1.80;;
6519;SDS011;3293;51.690;5.982;2022-07-06T07:05:46;5.07;;;1.88;;
6519;SDS011;3293;51.690;5.982;2022-07-06T07:10:47;7.25;;;1.73;;
6519;SDS011;3293;51.690;5.982;2022-07-06T07:15:47;3.50;;;1.75;;
6519;SDS011;3293;51.690;5.982;2022-07-06T07:20:47;2.92;;;1.77;;
6519;SDS011;3293;51.690;5.982;2022-07-06T07:25:47;4.47;;;1.50;;
6519;SDS011;3293;51.690;5.982;2022-07-06T07:30:47;5.25;;;1.95;;
6519;SDS011;3293;51.690;5.982;2022-07-06T07:35:47;3.53;;;1.60;;
6519;SDS011;3293;51.690;5.982;2022-07-06T07:40:47;2.35;;;1.15;;
6519;SDS011;3293;51.690;5.982;2022-07-06T07:45:47;3.65;;;1.38;;
6519;SDS011;3293;51.690;5.982;2022-07-06T07:50:47;2.80;;;1.25;;
6519;SDS011;3293;51.690;5.982;2022-07-06T07:55:47;2.45;;;1.50;;
6519;SDS011;3293;51.690;5.982;2022-07-06T08:00:47;2.05;;;1.30;;
6519;SDS011;3293;51.690;5.982;2022-07-06T08:05:47;1.02;;;0.90;;
6519;SDS011;3293;51.690;5.982;2022-07-06T08:10:47;3.72;;;1.35;;
6519;SDS011;3293;51.690;5.982;2022-07-06T08:15:47;4.57;;;1.73;;
6519;SDS011;3293;51.690;5.982;2022-07-06T08:20:47;3.28;;;1.33;;
6519;SDS011;3293;51.690;5.982;2022-07-06T08:25:47;4.55;;;1.65;;
6519;SDS011;3293;51.690;5.982;2022-07-06T08:30:47;5.03;;;1.45;;
6519;SDS011;3293;51.690;5.982;2022-07-06T08:35:47;3.33;;;1.20;;
6519;SDS011;3293;51.690;5.982;2022-07-06T08:40:48;2.08;;;0.85;;
6519;SDS011;3293;51.690;5.982;2022-07-06T08:45:49;1.30;;;1.00;;
6519;SDS011;3293;51.690;5.982;2022-07-06T08:50:52;4.63;;;1.63;;
6519;SDS011;3293;51.690;5.982;2022-07-06T08:55:54;4.70;;;1.60;;
6519;SDS011;3293;51.690;5.982;2022-07-06T09:00:54;3.15;;;1.50;;
6519;SDS011;3293;51.690;5.982;2022-07-06T09:05:56;3.05;;;1.35;;
6519;SDS011;3293;51.690;5.982;2022-07-06T09:11:00;3.63;;;1.52;;
6519;SDS011;3293;51.690;5.982;2022-07-06T09:16:10;2.92;;;1.45;;
6519;SDS011;3293;51.690;5.982;2022-07-06T09:21:11;2.20;;;0.90;;
6519;SDS011;3293;51.690;5.982;2022-07-06T09:26:11;2.83;;;1.10;;
6519;SDS011;3293;51.690;5.982;2022-07-06T09:31:11;3.58;;;0.90;;
6519;SDS011;3293;51.690;5.982;2022-07-06T09:36:11;1.75;;;0.75;;
6519;SDS011;3293;51.690;5.982;2022-07-06T09:41:11;4.13;;;0.98;;
6519;SDS011;3293;51.690;5.982;2022-07-06T09:46:11;3.20;;;0.93;;
6519;SDS011;3293;51.690;5.982;2022-07-06T09:51:14;2.33;;;0.88;;
6519;SDS011;3293;51.690;5.982;2022-07-06T09:56:15;4.10;;;0.75;;
6519;SDS011;3293;51.690;5.982;2022-07-06T10:01:26;1.50;;;0.90;;
6519;SDS011;3293;51.690;5.982;2022-07-06T10:06:28;2.45;;;0.75;;
6519;SDS011;3293;51.690;5.982;2022-07-06T10:11:29;2.28;;;0.88;;
6519;SDS011;3293;51.690;5.982;2022-07-06T10:16:30;4.40;;;1.00;;
6519;SDS011;3293;51.690;5.982;2022-07-06T10:21:30;1.98;;;0.73;;
6519;SDS011;3293;51.690;5.982;2022-07-06T10:26:31;1.13;;;0.85;;
6519;SDS011;3293;51.690;5.982;2022-07-06T10:31:34;2.92;;;1.25;;
6519;SDS011;3293;51.690;5.982;2022-07-06T10:36:38;3.65;;;1.40;;
6519;SDS011;3293;51.690;5.982;2022-07-06T10:41:39;2.13;;;0.85;;
6519;SDS011;3293;51.690;5.982;2022-07-06T10:46:39;2.47;;;1.02;;
6519;SDS011;3293;51.690;5.982;2022-07-06T10:51:40;2.03;;;1.00;;
6519;SDS011;3293;51.690;5.982;2022-07-06T10:56:42;4.22;;;1.13;;
6519;SDS011;3293;51.690;5.982;2022-07-06T11:02:29;2.85;;;1.17;;
6519;SDS011;3293;51.690;5.982;2022-07-06T11:07:18;4.30;;;1.40;;
6519;SDS011;3293;51.690;5.982;2022-07-06T11:12:19;1.98;;;1.05;;
6519;SDS011;3293;51.690;5.982;2022-07-06T11:17:20;1.95;;;1.13;;
6519;SDS011;3293;51.690;5.982;2022-07-06T11:22:20;1.77;;;1.25;;
6519;SDS011;3293;51.690;5.982;2022-07-06T11:27:22;1.75;;;1.20;;
6519;SDS011;3293;51.690;5.982;2022-07-06T11:32:25;3.13;;;1.05;;
6519;SDS011;3293;51.690;5.982;2022-07-06T11:37:26;3.72;;;1.23;;
6519;SDS011;3293;51.690;5.982;2022-07-06T11:42:26;6.45;;;1.52;;
6519;SDS011;3293;51.690;5.982;2022-07-06T11:47:30;3.17;;;1.30;;
6519;SDS011;3293;51.690;5.982;2022-07-06T11:52:30;3.17;;;1.40;;
6519;SDS011;3293;51.690;5.982;2022-07-06T11:57:31;3.10;;;1.30;;
6519;SDS011;3293;51.690;5.982;2022-07-06T12:02:32;2.70;;;1.20;;
6519;SDS011;3293;51.690;5.982;2022-07-06T12:07:32;2.97;;;1.40;;
6519;SDS011;3293;51.690;5.982;2022-07-06T12:12:32;2.10;;;1.63;;
6519;SDS011;3293;51.690;5.982;2022-07-06T12:17:32;2.25;;;1.00;;
6519;SDS011;3293;51.690;5.982;2022-07-06T12:22:32;3.92;;;1.33;;
6519;SDS011;3293;51.690;5.982;2022-07-06T12:27:33;2.13;;;1.40;;
6519;SDS011;3293;51.690;5.982;2022-07-06T12:32:34;2.42;;;1.27;;
6519;SDS011;3293;51.690;5.982;2022-07-06T12:37:35;1.33;;;1.17;;
6519;SDS011;3293;51.690;5.982;2022-07-06T12:42:35;3.33;;;1.42;;
6519;SDS011;3293;51.690;5.982;2022-07-06T12:48:04;3.67;;;1.77;;
6519;SDS011;3293;51.690;5.982;2022-07-06T12:53:05;2.80;;;1.40;;
6519;SDS011;3293;51.690;5.982;2022-07-06T12:58:22;1.52;;;1.25;;
6519;SDS011;3293;51.690;5.982;2022-07-06T13:03:22;2.13;;;1.25;;
6519;SDS011;3293;51.690;5.982;2022-07-06T13:08:22;2.17;;;1.30;;
6519;SDS011;3293;51.690;5.982;2022-07-06T13:13:22;4.47;;;1.23;;
6519;SDS011;3293;51.690;5.982;2022-07-06T13:18:22;6.05;;;1.20;;
6519;SDS011;3293;51.690;5.982;2022-07-06T13:23:23;4.05;;;1.30;;
6519;SDS011;3293;51.690;5.982;2022-07-06T13:28:22;2.50;;;1.10;;
6519;SDS011;3293;51.690;5.982;2022-07-06T13:33:23;1.90;;;1.08;;
6519;SDS011;3293;51.690;5.982;2022-07-06T13:38:23;3.83;;;1.00;;
6519;SDS011;3293;51.690;5.982;2022-07-06T13:43:22;2.75;;;1.30;;
6519;SDS011;3293;51.690;5.982;2022-07-06T13:48:22;3.20;;;0.90;;
6519;SDS011;3293;51.690;5.982;2022-07-06T13:53:23;2.08;;;1.10;;
6519;SDS011;3293;51.690;5.982;2022-07-06T13:58:23;6.13;;;1.20;;
6519;SDS011;3293;51.690;5.982;2022-07-06T14:03:23;1.20;;;0.93;;
6519;SDS011;3293;51.690;5.982;2022-07-06T14:08:28;2.35;;;1.05;;
6519;SDS011;3293;51.690;5.982;2022-07-06T14:13:29;5.53;;;1.50;;
6519;SDS011;3293;51.690;5.982;2022-07-06T14:18:29;3.88;;;1.30;;
6519;SDS011;3293;51.690;5.982;2022-07-06T14:23:29;3.15;;;1.52;;
6519;SDS011;3293;51.690;5.982;2022-07-06T14:28:29;1.83;;;1.33;;
6519;SDS011;3293;51.690;5.982;2022-07-06T14:33:29;1.85;;;1.08;;
6519;SDS011;3293;51.690;5.982;2022-07-06T14:38:29;2.92;;;1.15;;
6519;SDS011;3293;51.690;5.982;2022-07-06T14:43:29;7.80;;;1.17;;
6519;SDS011;3293;51.690;5.982;2022-07-06T14:48:29;3.35;;;1.60;;
6519;SDS011;3293;51.690;5.982;2022-07-06T14:53:29;1.85;;;1.30;;
6519;SDS011;3293;51.690;5.982;2022-07-06T14:58:30;2.47;;;1.50;;
6519;SDS011;3293;51.690;5.982;2022-07-06T15:03:30;2.45;;;1.33;;
6519;SDS011;3293;51.690;5.982;2022-07-06T15:08:29;2.00;;;1.40;;
6519;SDS011;3293;51.690;5.982;2022-07-06T15:13:29;4.32;;;1.50;;
6519;SDS011;3293;51.690;5.982;2022-07-06T15:18:30;2.28;;;1.23;;
6519;SDS011;3293;51.690;5.982;2022-07-06T15:23:30;3.65;;;1.27;;
6519;SDS011;3293;51.690;5.982;2022-07-06T15:28:30;2.08;;;1.30;;
6519;SDS011;3293;51.690;5.982;2022-07-06T15:33:30;2.83;;;1.10;;
6519;SDS011;3293;51.690;5.982;2022-07-06T15:38:30;2.97;;;1.45;;
6519;SDS011;3293;51.690;5.982;2022-07-06T15:43:30;2.08;;;1.20;;
6519;SDS011;3293;51.690;5.982;2022-07-06T15:48:30;4.10;;;1.67;;
6519;SDS011;3293;51.690;5.982;2022-07-06T15:53:31;2.25;;;1.60;;
6519;SDS011;3293;51.690;5.982;2022-07-06T15:58:32;2.88;;;1.65;;
6519;SDS011;3293;51.690;5.982;2022-07-06T16:03:32;3.88;;;2.30;;
6519;SDS011;3293;51.690;5.982;2022-07-06T16:08:32;5.63;;;2.30;;
6519;SDS011;3293;51.690;5.982;2022-07-06T16:13:32;3.75;;;1.95;;
6519;SDS011;3293;51.690;5.982;2022-07-06T16:18:32;6.55;;;1.80;;
6519;SDS011;3293;51.690;5.982;2022-07-06T16:23:34;5.47;;;2.30;;
6519;SDS011;3293;51.690;5.982;2022-07-06T16:28:34;3.85;;;1.80;;
6519;SDS011;3293;51.690;5.982;2022-07-06T16:33:35;3.15;;;1.85;;
6519;SDS011;3293;51.690;5.982;2022-07-06T16:38:36;6.35;;;2.13;;
6519;SDS011;3293;51.690;5.982;2022-07-06T16:43:37;4.90;;;1.80;;
6519;SDS011;3293;51.690;5.982;2022-07-06T16:48:37;5.10;;;1.77;;
6519;SDS011;3293;51.690;5.982;2022-07-06T16:53:37;3.25;;;1.65;;
6519;SDS011;3293;51.690;5.982;2022-07-06T16:58:38;2.95;;;1.90;;
6519;SDS011;3293;51.690;5.982;2022-07-06T17:03:38;3.83;;;1.95;;
6519;SDS011;3293;51.690;5.982;2022-07-06T17:08:37;3.92;;;1.80;;
6519;SDS011;3293;51.690;5.982;2022-07-06T17:13:37;3.35;;;1.88;;
6519;SDS011;3293;51.690;5.982;2022-07-06T17:18:38;3.92;;;1.60;;
6519;SDS011;3293;51.690;5.982;2022-07-06T17:23:38;5.60;;;2.05;;
6519;SDS011;3293;51.690;5.982;2022-07-06T17:28:39;3.78;;;1.80;;
6519;SDS011;3293;51.690;5.982;2022-07-06T17:33:39;3.80;;;2.00;;
6519;SDS011;3293;51.690;5.982;2022-07-06T17:38:39;6.20;;;2.30;;
6519;SDS011;3293;51.690;5.982;2022-07-06T17:43:39;7.18;;;2.65;;
6519;SDS011;3293;51.690;5.982;2022-07-06T17:48:39;4.30;;;2.20;;
6519;SDS011;3293;51.690;5.982;2022-07-06T17:53:39;6.55;;;2.53;;
6519;SDS011;3293;51.690;5.982;2022-07-06T17:58:39;4.63;;;2.47;;
6519;SDS011;3293;51.690;5.982;2022-07-06T18:03:39;6.32;;;2.50;;
6519;SDS011;3293;51.690;5.982;2022-07-06T18:08:39;8.88;;;2.97;;
6519;SDS011;3293;51.690;5.982;2022-07-06T18:13:39;7.68;;;3.55;;
6519;SDS011;3293;51.690;5.982;2022-07-06T18:18:39;6.53;;;3.50;;
6519;SDS011;3293;51.690;5.982;2022-07-06T18:23:39;7.15;;;3.30;;
6519;SDS011;3293;51.690;5.982;2022-07-06T18:28:39;9.27;;;3.53;;
6519;SDS011;3293;51.690;5.982;2022-07-06T18:33:39;8.07;;;2.97;;
6519;SDS011;3293;51.690;5.982;2022-07-06T18:38:39;5.57;;;2.88;;
6519;SDS011;3293;51.690;5.982;2022-07-06T18:43:39;7.93;;;2.95;;
6519;SDS011;3293;51.690;5.982;2022-07-06T18:48:39;3.55;;;2.25;;
6519;SDS011;3293;51.690;5.982;2022-07-06T18:53:39;5.93;;;2.50;;
6519;SDS011;3293;51.690;5.982;2022-07-06T18:58:39;7.82;;;2.80;;
6519;SDS011;3293;51.690;5.982;2022-07-06T19:03:39;8.68;;;2.85;;
6519;SDS011;3293;51.690;5.982;2022-07-06T19:08:40;5.80;;;2.75;;
6519;SDS011;3293;51.690;5.982;2022-07-06T19:13:40;7.53;;;3.40;;
6519;SDS011;3293;51.690;5.982;2022-07-06T19:18:40;4.95;;;2.85;;
6519;SDS011;3293;51.690;5.982;2022-07-06T19:23:41;8.77;;;3.25;;
6519;SDS011;3293;51.690;5.982;2022-07-06T19:28:41;4.55;;;3.22;;
6519;SDS011;3293;51.690;5.982;2022-07-06T19:33:41;6.43;;;3.13;;
6519;SDS011;3293;51.690;5.982;2022-07-06T19:38:41;7.15;;;2.97;;
6519;SDS011;3293;51.690;5.982;2022-07-06T19:43:41;4.13;;;3.00;;
6519;SDS011;3293;51.690;5.982;2022-07-06T19:48:41;8.52;;;3.42;;
6519;SDS011;3293;51.690;5.982;2022-07-06T19:53:41;3.15;;;2.25;;
6519;SDS011;3293;51.690;5.982;2022-07-06T19:58:42;5.97;;;2.83;;
6519;SDS011;3293;51.690;5.982;2022-07-06T20:03:42;6.18;;;2.97;;
6519;SDS011;3293;51.690;5.982;2022-07-06T20:08:43;5.63;;;2.65;;
6519;SDS011;3293;51.690;5.982;2022-07-06T20:13:43;5.45;;;2.90;;
6519;SDS011;3293;51.690;5.982;2022-07-06T20:18:43;5.30;;;2.78;;
6519;SDS011;3293;51.690;5.982;2022-07-06T20:23:43;5.72;;;2.70;;
6519;SDS011;3293;51.690;5.982;2022-07-06T20:28:43;4.15;;;2.58;;
6519;SDS011;3293;51.690;5.982;2022-07-06T20:33:43;5.50;;;2.63;;
6519;SDS011;3293;51.690;5.982;2022-07-06T20:38:43;5.20;;;2.67;;
6519;SDS011;3293;51.690;5.982;2022-07-06T20:43:43;6.28;;;3.22;;
6519;SDS011;3293;51.690;5.982;2022-07-06T20:48:43;4.80;;;2.75;;
6519;SDS011;3293;51.690;5.982;2022-07-06T20:53:43;4.60;;;2.40;;
6519;SDS011;3293;51.690;5.982;2022-07-06T20:58:44;4.03;;;2.60;;
6519;SDS011;3293;51.690;5.982;2022-07-06T21:03:44;3.00;;;2.40;;
6519;SDS011;3293;51.690;5.982;2022-07-06T21:08:44;3.10;;;2.00;;
6519;SDS011;3293;51.690;5.982;2022-07-06T21:13:46;3.00;;;2.30;;
6519;SDS011;3293;51.690;5.982;2022-07-06T21:18:46;5.30;;;2.30;;
6519;SDS011;3293;51.690;5.982;2022-07-06T21:23:46;4.95;;;2.63;;
6519;SDS011;3293;51.690;5.982;2022-07-06T21:28:46;3.15;;;2.40;;
6519;SDS011;3293;51.690;5.982;2022-07-06T21:33:46;2.80;;;2.33;;
6519;SDS011;3293;51.690;5.982;2022-07-06T21:38:46;3.83;;;2.65;;
6519;SDS011;3293;51.690;5.982;2022-07-06T21:43:46;4.90;;;2.75;;
6519;SDS011;3293;51.690;5.982;2022-07-06T21:48:47;3.22;;;2.70;;
6519;SDS011;3293;51.690;5.982;2022-07-06T21:53:47;4.47;;;3.00;;
6519;SDS011;3293;51.690;5.982;2022-07-06T21:58:47;4.15;;;2.78;;
6519;SDS011;3293;51.690;5.982;2022-07-06T22:03:47;11.05;;;3.70;;
6519;SDS011;3293;51.690;5.982;2022-07-06T22:08:47;5.18;;;3.70;;
6519;SDS011;3293;51.690;5.982;2022-07-06T22:13:47;5.15;;;3.30;;
6519;SDS011;3293;51.690;5.982;2022-07-06T22:18:48;7.13;;;3.85;;
6519;SDS011;3293;51.690;5.982;2022-07-06T22:23:49;4.80;;;3.63;;
6519;SDS011;3293;51.690;5.982;2022-07-06T22:28:50;4.63;;;3.58;;
6519;SDS011;3293;51.690;5.982;2022-07-06T22:33:50;4.25;;;3.53;;
6519;SDS011;3293;51.690;5.982;2022-07-06T22:38:50;3.50;;;3.20;;
6519;SDS011;3293;51.690;5.982;2022-07-06T22:43:51;4.80;;;3.58;;
6519;SDS011;3293;51.690;5.982;2022-07-06T22:48:51;6.00;;;3.72;;
6519;SDS011;3293;51.690;5.982;2022-07-06T22:53:51;6.90;;;3.63;;
6519;SDS011;3293;51.690;5.982;2022-07-06T22:58:52;6.80;;;3.45;;
6519;SDS011;3293;51.690;5.982;2022-07-06T23:03:53;5.47;;;3.40;;
6519;SDS011;3293;51.690;5.982;2022-07-06T23:08:53;5.72;;;3.90;;
6519;SDS011;3293;51.690;5.982;2022-07-06T23:13:54;4.53;;;3.42;;
6519;SDS011;3293;51.690;5.982;2022-07-06T23:18:54;4.53;;;3.85;;
6519;SDS011;3293;51.690;5.982;2022-07-06T23:23:54;7.50;;;4.10;;
6519;SDS011;3293;51.690;5.982;2022-07-06T23:28:54;4.68;;;4.18;;
6519;SDS011;3293;51.690;5.982;2022-07-06T23:33:53;7.53;;;4.38;;
6519;SDS011;3293;51.690;5.982;2022-07-06T23:38:54;5.88;;;4.43;;
6519;SDS011;3293;51.690;5.982;2022-07-06T23:43:53;6.53;;;4.50;;
6519;SDS011;3293;51.690;5.982;2022-07-06T23:48:54;8.73;;;4.90;;
6519;SDS011;3293;51.690;5.982;2022-07-06T23:53:54;8.27;;;5.00;;
6519;SDS011;3293;51.690;5.982;2022-07-06T23:58:54;5.93;;;5.30;;
